»·PEaware :: DAL494 KEWR-KJFK

DAL494 :: KEWR-KJFK

FLIGHT INFORMATION

Flight Status: Arrived
Operator:
Delta Air Lines
More flights by this operator :: More flights under this callsign
Pilot: Tamer M. (30101)
Aircraft: BOEING 737-700
(B737)
More flights by this aircraft type
Origin: KEWR Newark Intl
United States
Destination: KJFK Kennedy Intl
United States
More flights between these airports :: More routes between these airports
Route: EWR4 BREZY V39 CMK V419 JUDDS NELIE MAD V1 DPK
File this flight plan on PilotEdge
Remarks:
Altitude:
(Current/Filed)
11,000ft
Speed:
(Current/Filed)
363kts
Departed: 03-Dec-22 08:11 AM
Arrived: 03-Dec-22 08:51 AM
Distance/Time
Traveled:
18nm/0:39
Distance/Time
To Go:
Arrived

Flight Plot

Page will automatically refresh every two minutes.

Flight plan parsing failed; only flown route is shown


Map Options




Map Legend


Flown Route
Filed Route
Departure Airport
Arrival Airport
Navaid (VOR, NDB)
Fix

Horizontal Profiles

Position Reports

Time Latitude Longitude Heading Altitude Ground
Speed
03-Dec-22 07:52 40.688347 -74.176319 235 23ft 0kts
03-Dec-22 07:53 40.688347 -74.176319 235 23ft 0kts
03-Dec-22 07:54 40.688347 -74.176319 235 23ft 0kts
03-Dec-22 07:55 40.688347 -74.176319 235 23ft 0kts
03-Dec-22 07:56 40.688347 -74.176319 235 23ft 0kts
03-Dec-22 07:57 40.688347 -74.176319 235 23ft 0kts
03-Dec-22 07:58 40.688347 -74.176319 235 23ft 0kts
03-Dec-22 07:59 40.688347 -74.176319 235 23ft 0kts
03-Dec-22 08:00 40.688347 -74.176319 235 23ft 0kts
03-Dec-22 08:01 40.688369 -74.176277 235 21ft 2kts
03-Dec-22 08:02 40.688694 -74.175767 190 20ft 0kts
03-Dec-22 08:03 40.688694 -74.175767 190 20ft 0kts
03-Dec-22 08:04 40.688694 -74.175767 190 20ft 0kts
03-Dec-22 08:05 40.688694 -74.175767 190 20ft 0kts
03-Dec-22 08:06 40.687586 -74.174997 128 23ft 15kts
03-Dec-22 08:07 40.684323 -74.175367 206 21ft 13kts
03-Dec-22 08:08 40.680217 -74.177994 206 16ft 18kts
03-Dec-22 08:09 40.677258 -74.179782 175 18ft 0kts
03-Dec-22 08:10 40.679165 -74.177016 24 14ft 77kts
03-Dec-22 08:11 40.713571 -74.147863 46 2265ft 180kts
03-Dec-22 08:12 40.759702 -74.092497 11 3587ft 241kts
03-Dec-22 08:13 40.816871 -74.046850 39 6713ft 252kts
03-Dec-22 08:14 40.872767 -73.987823 37 9496ft 263kts
03-Dec-22 08:15 40.932460 -73.927945 36 11004ft 272kts
03-Dec-22 08:16 40.992709 -73.868077 36 11014ft 271kts
03-Dec-22 08:17 41.031862 -73.785871 71 11017ft 290kts
03-Dec-22 08:18 41.062668 -73.663705 70 11012ft 391kts
03-Dec-22 08:19 41.098857 -73.525726 70 13859ft 399kts
03-Dec-22 08:20 41.136024 -73.383725 70 16577ft 416kts
03-Dec-22 08:21 41.174460 -73.235933 70 16989ft 428kts
03-Dec-22 08:22 41.212772 -73.088453 70 14495ft 412kts
03-Dec-22 08:23 41.249499 -72.945273 71 14001ft 398kts
03-Dec-22 08:24 41.279469 -72.827799 71 13986ft 287kts
03-Dec-22 08:25 41.305241 -72.726334 71 14002ft 285kts
03-Dec-22 08:26 41.352083 -72.649047 33 14011ft 280kts
03-Dec-22 08:27 41.413239 -72.584011 44 14010ft 284kts
03-Dec-22 08:28 41.404371 -72.494480 152 14014ft 282kts
03-Dec-22 08:29 41.327516 -72.483442 167 14014ft 284kts
03-Dec-22 08:30 41.243571 -72.504265 228 13288ft 391kts
03-Dec-22 08:31 41.179007 -72.621107 234 12277ft 390kts
03-Dec-22 08:32 41.115225 -72.736273 233 11268ft 386kts
03-Dec-22 08:33 41.071903 -72.851782 273 10198ft 321kts
03-Dec-22 08:34 41.085705 -72.955678 286 9142ft 260kts
03-Dec-22 08:35 41.098122 -73.042287 243 8748ft 248kts
03-Dec-22 08:36 41.039295 -73.092612 210 7978ft 240kts
03-Dec-22 08:37 40.982897 -73.138519 213 6297ft 236kts
03-Dec-22 08:38 40.928912 -73.184936 213 5993ft 226kts
03-Dec-22 08:39 40.875732 -73.231005 213 6003ft 227kts
03-Dec-22 08:40 40.836967 -73.283885 256 6014ft 205kts
03-Dec-22 08:41 40.830294 -73.358667 266 5821ft 213kts
03-Dec-22 08:43 40.827106 -73.437861 267 4312ft 216kts
03-Dec-22 08:44 40.823378 -73.512606 261 2855ft 193kts
03-Dec-22 08:45 40.813165 -73.582715 259 2005ft 196kts
03-Dec-22 08:46 40.801494 -73.651180 234 1982ft 186kts
03-Dec-22 08:47 40.758236 -73.687395 208 2027ft 187kts
03-Dec-22 08:48 40.712443 -73.719712 208 1569ft 174kts
03-Dec-22 08:49 40.676999 -73.744665 207 827ft 132kts
03-Dec-22 08:50 40.645569 -73.767214 210 101ft 127kts
03-Dec-22 08:51 40.632999 -73.777572 263 22ft 18kts
03-Dec-22 08:52 40.633440 -73.778787 304 20ft 9kts
03-Dec-22 08:53 40.636748 -73.778975 353 19ft 11kts
03-Dec-22 08:54 40.639562 -73.779533 317 20ft 9kts
03-Dec-22 08:55 40.639532 -73.780696 266 19ft 0kts
03-Dec-22 08:56 40.639532 -73.780696 266 19ft 0kts
03-Dec-22 08:57 40.639532 -73.780696 266 19ft 0kts

Navigation Log

Ident Type
Flight plan parsing failed, navigation log unavailable